createdAt,value
2022-08-31T00:01:02.978Z,16.94
2022-08-31T00:03:49.466Z,16.96
2022-08-31T00:06:18.761Z,17.04
2022-08-31T00:08:49.488Z,16.98
2022-08-31T00:11:27.832Z,16.96
2022-08-31T00:13:59.057Z,16.96
2022-08-31T00:16:30.844Z,16.96
2022-08-31T00:19:00.513Z,17.14
2022-08-31T00:21:29.726Z,17.11
2022-08-31T00:24:00.814Z,17.07
2022-08-31T00:26:30.080Z,17.06
2022-08-31T00:28:59.207Z,17.17
2022-08-31T00:31:28.603Z,17.03
2022-08-31T00:33:58.958Z,16.98
2022-08-31T00:36:29.167Z,17.03
2022-08-31T00:39:01.058Z,17.13
2022-08-31T00:41:32.320Z,17.14
2022-08-31T00:44:04.745Z,17.26
2022-08-31T00:46:38.889Z,17.25
2022-08-31T00:49:12.105Z,17.23
2022-08-31T00:51:47.949Z,17.15
2022-08-31T00:54:21.950Z,17.15
2022-08-31T00:56:51.986Z,17.18
2022-08-31T00:59:23.796Z,17.20
2022-08-31T01:01:53.065Z,17.20
2022-08-31T01:04:23.281Z,17.07
2022-08-31T01:06:53.338Z,17.09
2022-08-31T01:09:26.414Z,17.13
2022-08-31T01:11:55.718Z,17.19
2022-08-31T01:14:25.125Z,17.02
2022-08-31T01:16:56.472Z,16.88
2022-08-31T01:19:34.058Z,16.88
2022-08-31T01:22:17.559Z,16.73
2022-08-31T01:24:49.891Z,16.71
2022-08-31T01:27:26.025Z,16.84
2022-08-31T01:29:55.748Z,16.84
2022-08-31T01:32:30.777Z,16.83
2022-08-31T01:35:00.102Z,16.64
2022-08-31T01:37:30.612Z,16.59
2022-08-31T01:40:01.902Z,16.59
2022-08-31T01:42:34.151Z,16.46
2022-08-31T01:45:03.962Z,16.40
2022-08-31T01:47:33.414Z,16.41
2022-08-31T01:50:03.509Z,16.41
2022-08-31T01:52:34.183Z,16.49
2022-08-31T01:55:06.158Z,16.45
2022-08-31T01:57:35.646Z,16.51
2022-08-31T02:00:22.813Z,16.42
2022-08-31T02:02:52.118Z,16.31
2022-08-31T02:05:22.797Z,16.29
2022-08-31T02:07:52.071Z,16.25
2022-08-31T02:10:22.973Z,16.17
2022-08-31T02:12:52.920Z,16.12
2022-08-31T02:15:31.569Z,16.07
2022-08-31T02:18:00.953Z,16.06
2022-08-31T02:20:32.239Z,16.03
2022-08-31T02:23:03.616Z,15.99
2022-08-31T02:25:34.426Z,15.93
2022-08-31T02:28:05.680Z,15.89
2022-08-31T02:30:34.907Z,15.91
2022-08-31T02:33:04.901Z,15.89
2022-08-31T02:35:34.220Z,15.93
2022-08-31T02:38:03.551Z,15.95
2022-08-31T02:40:38.436Z,15.87
2022-08-31T02:43:11.321Z,15.95
2022-08-31T02:45:53.921Z,15.95
2022-08-31T02:48:28.365Z,15.88
2022-08-31T02:51:07.218Z,15.75
2022-08-31T02:53:37.327Z,15.65
2022-08-31T02:56:09.214Z,15.62
2022-08-31T02:58:38.801Z,15.47
2022-08-31T03:01:08.819Z,15.34
2022-08-31T03:03:38.821Z,15.36
2022-08-31T03:06:08.423Z,15.29
2022-08-31T03:08:39.503Z,15.25
2022-08-31T03:11:10.921Z,15.27
2022-08-31T03:13:41.443Z,15.21
2022-08-31T03:16:13.519Z,15.31
2022-08-31T03:18:43.229Z,15.35
2022-08-31T03:21:12.474Z,15.40
2022-08-31T03:23:42.527Z,15.46
2022-08-31T03:26:13.325Z,15.49
2022-08-31T03:28:43.614Z,15.56
2022-08-31T03:31:35.358Z,15.64
2022-08-31T03:34:05.441Z,15.69
2022-08-31T03:36:34.717Z,15.74
2022-08-31T03:39:05.469Z,15.86
2022-08-31T03:41:36.628Z,15.84
2022-08-31T03:44:06.571Z,15.88
2022-08-31T03:46:39.764Z,15.79
2022-08-31T03:49:12.449Z,15.81
2022-08-31T03:51:48.298Z,15.76
2022-08-31T03:54:24.336Z,15.85
2022-08-31T03:56:56.204Z,15.88
2022-08-31T03:59:26.194Z,15.86
2022-08-31T04:02:28.245Z,15.85
2022-08-31T04:05:16.289Z,15.84
2022-08-31T04:08:04.394Z,15.84
2022-08-31T04:10:54.073Z,15.79
2022-08-31T04:13:37.171Z,15.76
2022-08-31T04:16:29.657Z,15.77
2022-08-31T04:19:48.357Z,15.72
2022-08-31T04:22:30.989Z,15.92
2022-08-31T04:25:21.635Z,15.91
2022-08-31T04:27:51.150Z,15.82
2022-08-31T04:30:22.219Z,15.78
2022-08-31T04:32:51.736Z,15.68
2022-08-31T04:35:21.260Z,15.63
2022-08-31T04:37:50.662Z,15.49
2022-08-31T04:40:27.151Z,15.50
2022-08-31T04:43:25.269Z,15.53
2022-08-31T04:45:56.168Z,15.47
2022-08-31T04:48:29.991Z,15.40
2022-08-31T04:51:07.052Z,15.43
2022-08-31T04:54:53.090Z,15.52
2022-08-31T04:57:22.381Z,15.54
2022-08-31T04:59:51.654Z,15.45
2022-08-31T05:02:54.776Z,15.46
2022-08-31T05:06:06.004Z,15.50
2022-08-31T05:08:35.239Z,15.65
2022-08-31T05:11:11.396Z,15.69
2022-08-31T05:15:11.398Z,15.77
2022-08-31T05:19:15.474Z,15.86
2022-08-31T05:21:48.441Z,16.21
2022-08-31T05:24:22.674Z,16.50
2022-08-31T05:26:56.087Z,16.73
2022-08-31T05:29:27.494Z,16.93
2022-08-31T05:32:18.309Z,17.15
2022-08-31T05:34:48.305Z,17.30
2022-08-31T05:37:19.800Z,17.36
2022-08-31T05:39:49.190Z,17.45
2022-08-31T05:42:21.211Z,17.54
2022-08-31T05:44:50.472Z,17.63
2022-08-31T05:47:19.780Z,17.57
2022-08-31T05:49:49.255Z,17.57
2022-08-31T05:52:28.368Z,17.59
2022-08-31T05:55:07.605Z,17.57
2022-08-31T05:57:38.346Z,17.59
2022-08-31T06:00:09.890Z,17.56
2022-08-31T06:02:51.112Z,17.54
2022-08-31T06:05:27.163Z,17.55
2022-08-31T06:07:58.123Z,17.55
2022-08-31T06:10:28.372Z,17.58
2022-08-31T06:13:02.133Z,17.63
2022-08-31T06:15:31.443Z,17.73
2022-08-31T06:18:05.510Z,17.87
2022-08-31T06:20:38.069Z,18.08
2022-08-31T06:23:10.121Z,18.34
2022-08-31T06:25:51.799Z,18.48
2022-08-31T06:28:21.586Z,18.72
2022-08-31T06:30:55.367Z,18.89
2022-08-31T06:33:25.941Z,19.10
2022-08-31T06:36:21.524Z,19.28
2022-08-31T06:39:12.480Z,19.31
2022-08-31T06:42:00.118Z,19.46
2022-08-31T06:44:29.794Z,19.54
2022-08-31T06:47:11.275Z,19.78
2022-08-31T06:49:42.978Z,19.71
2022-08-31T06:52:14.783Z,19.67
2022-08-31T06:54:48.185Z,19.75
2022-08-31T06:57:37.359Z,19.82
2022-08-31T07:00:36.729Z,20.17
2022-08-31T07:03:34.519Z,20.40
2022-08-31T07:06:12.035Z,20.56
2022-08-31T07:08:44.635Z,20.83
2022-08-31T07:11:18.806Z,21.18
2022-08-31T07:13:48.854Z,21.44
2022-08-31T07:16:24.937Z,21.96
2022-08-31T07:18:59.352Z,22.45
2022-08-31T07:21:32.521Z,22.70
2022-08-31T07:24:06.990Z,22.96
2022-08-31T07:26:42.487Z,23.09
2022-08-31T07:29:15.049Z,23.16
2022-08-31T07:31:46.598Z,23.31
2022-08-31T07:34:21.452Z,23.45
2022-08-31T07:37:24.273Z,23.54
2022-08-31T07:40:33.720Z,23.58
2022-08-31T07:43:04.834Z,23.54
2022-08-31T07:45:39.132Z,23.52
2022-08-31T07:48:10.018Z,23.44
2022-08-31T07:51:15.167Z,23.35
2022-08-31T07:54:06.250Z,23.21
2022-08-31T07:57:03.631Z,23.06
2022-08-31T07:59:39.866Z,22.91
2022-08-31T08:02:14.025Z,22.77
2022-08-31T08:04:48.218Z,22.60
2022-08-31T08:07:46.424Z,22.46
2022-08-31T08:10:52.133Z,22.41
2022-08-31T08:13:47.971Z,22.30
2022-08-31T08:16:40.314Z,22.31
2022-08-31T08:19:33.741Z,22.29
2022-08-31T08:22:05.532Z,22.28
2022-08-31T08:24:51.020Z,22.37
2022-08-31T08:27:39.564Z,22.48
2022-08-31T08:30:29.148Z,22.75
2022-08-31T08:33:01.380Z,22.89
2022-08-31T08:35:31.011Z,23.19
2022-08-31T08:38:04.385Z,23.60
2022-08-31T08:41:03.149Z,23.97
2022-08-31T08:43:36.659Z,24.03
2022-08-31T08:46:31.253Z,23.89
2022-08-31T08:49:31.139Z,23.82
2022-08-31T08:52:10.981Z,23.71
2022-08-31T08:54:49.527Z,23.72
2022-08-31T08:57:25.039Z,23.77
2022-08-31T09:00:01.054Z,24.09
2022-08-31T09:02:38.451Z,24.32
2022-08-31T09:05:35.238Z,24.66
2022-08-31T09:08:54.837Z,24.43
2022-08-31T09:11:35.658Z,24.64
2022-08-31T09:14:24.505Z,24.85
2022-08-31T09:17:01.354Z,24.08
2022-08-31T09:19:52.020Z,23.61
2022-08-31T09:22:22.839Z,23.91
2022-08-31T09:24:56.360Z,24.27
2022-08-31T09:27:52.166Z,24.56
2022-08-31T09:30:50.884Z,24.88
2022-08-31T09:33:27.853Z,25.16
2022-08-31T09:36:16.136Z,25.38
2022-08-31T09:38:49.721Z,25.51
2022-08-31T09:41:33.157Z,25.88
2022-08-31T09:44:35.122Z,26.12
2022-08-31T09:47:21.980Z,25.50
2022-08-31T09:49:57.935Z,25.72
2022-08-31T09:52:53.199Z,25.51
2022-08-31T09:55:28.461Z,25.24
2022-08-31T09:58:03.254Z,25.32
2022-08-31T10:00:41.435Z,25.58
2022-08-31T10:03:20.778Z,25.87
2022-08-31T10:05:54.752Z,26.05
2022-08-31T10:08:41.101Z,26.14
2022-08-31T10:11:17.573Z,26.32
2022-08-31T10:13:58.896Z,26.54
2022-08-31T10:16:36.352Z,26.65
2022-08-31T10:19:09.979Z,26.63
2022-08-31T10:21:52.353Z,26.67
2022-08-31T10:24:34.687Z,27.30
2022-08-31T10:27:26.716Z,27.80
2022-08-31T10:30:08.883Z,28.38
2022-08-31T10:32:43.725Z,28.70
2022-08-31T10:35:51.788Z,29.15
2022-08-31T10:38:30.687Z,29.45
2022-08-31T10:41:11.829Z,29.13
2022-08-31T10:43:50.502Z,28.14
2022-08-31T10:46:26.283Z,28.34
2022-08-31T10:48:58.765Z,28.47
2022-08-31T11:16:01.264Z,29.84
2022-08-31T11:19:10.418Z,28.64
2022-08-31T13:28:53.777Z,24.73
2022-08-31T13:31:28.259Z,24.69
2022-08-31T13:53:48.252Z,24.20
2022-08-31T13:56:56.686Z,24.00
2022-08-31T13:59:33.103Z,24.01
2022-08-31T14:02:36.674Z,23.61
2022-08-31T14:05:10.061Z,23.55
2022-08-31T14:08:08.302Z,23.49
2022-08-31T14:10:46.401Z,23.35
2022-08-31T14:13:26.999Z,23.39
2022-08-31T14:16:03.174Z,23.37
2022-08-31T14:18:48.283Z,23.45
2022-08-31T14:21:51.038Z,23.39
2022-08-31T14:24:20.765Z,23.24
2022-08-31T14:26:56.991Z,23.22
2022-08-31T14:29:29.207Z,22.97
2022-08-31T14:32:10.121Z,22.92
2022-08-31T14:34:51.588Z,22.84
2022-08-31T14:37:22.652Z,22.85
2022-08-31T14:39:57.799Z,22.76
2022-08-31T14:42:39.069Z,22.61
2022-08-31T14:45:18.718Z,22.64
2022-08-31T14:47:52.415Z,22.33
2022-08-31T14:50:27.225Z,22.39
2022-08-31T14:52:57.674Z,22.26
2022-08-31T14:55:35.167Z,22.28
2022-08-31T14:58:12.372Z,22.18
2022-08-31T15:00:53.149Z,22.10
2022-08-31T15:03:24.411Z,22.01
2022-08-31T15:05:53.741Z,22.02
2022-08-31T15:08:37.780Z,21.95
2022-08-31T15:11:08.347Z,21.87
2022-08-31T15:13:41.877Z,21.82
2022-08-31T15:16:17.478Z,21.74
2022-08-31T15:18:46.752Z,21.75
2022-08-31T15:21:16.105Z,21.72
2022-08-31T15:23:51.001Z,21.66
2022-08-31T15:26:21.712Z,21.68
2022-08-31T15:28:53.662Z,21.64
2022-08-31T15:31:28.365Z,21.66
2022-08-31T15:34:00.479Z,21.63
2022-08-31T15:36:33.747Z,21.56
2022-08-31T15:39:03.246Z,21.58
2022-08-31T15:41:32.865Z,21.47
2022-08-31T15:44:10.482Z,21.45
2022-08-31T15:46:58.070Z,21.47
2022-08-31T15:49:28.585Z,21.44
2022-08-31T15:51:57.959Z,21.45
2022-08-31T15:54:34.374Z,21.34
2022-08-31T15:57:06.168Z,21.23
2022-08-31T15:59:38.233Z,21.23
2022-08-31T16:02:08.698Z,21.22
2022-08-31T16:04:46.170Z,21.05
2022-08-31T16:07:16.686Z,20.98
2022-08-31T16:10:19.353Z,21.05
2022-08-31T16:12:50.600Z,20.96
2022-08-31T16:15:24.664Z,20.99
2022-08-31T16:18:12.845Z,20.80
2022-08-31T16:20:46.023Z,20.80
2022-08-31T16:23:27.867Z,20.66
2022-08-31T16:25:59.522Z,20.64
2022-08-31T16:29:22.101Z,20.53
2022-08-31T16:31:53.107Z,20.42
2022-08-31T16:34:25.789Z,20.48
2022-08-31T16:37:00.015Z,20.27
2022-08-31T16:39:29.456Z,20.20
2022-08-31T16:41:59.061Z,20.24
2022-08-31T16:44:33.699Z,20.19
2022-08-31T16:47:08.803Z,20.12
2022-08-31T16:49:38.901Z,20.00
2022-08-31T16:52:12.389Z,19.90
2022-08-31T16:54:45.090Z,19.75
2022-08-31T16:57:17.106Z,19.68
2022-08-31T16:59:47.072Z,19.53
2022-08-31T17:02:23.176Z,19.45
2022-08-31T17:04:54.186Z,19.13
2022-08-31T17:07:25.789Z,19.03
2022-08-31T17:09:59.127Z,18.99
2022-08-31T17:12:28.427Z,18.97
2022-08-31T17:14:58.231Z,18.93
2022-08-31T17:17:28.875Z,18.78
2022-08-31T17:20:01.787Z,18.82
2022-08-31T17:22:33.953Z,18.81
2022-08-31T17:25:04.913Z,18.74
2022-08-31T17:27:35.946Z,18.71
2022-08-31T17:30:07.984Z,18.58
2022-08-31T17:32:45.086Z,18.43
2022-08-31T17:35:18.497Z,18.43
2022-08-31T17:37:50.099Z,18.43
2022-08-31T17:40:20.440Z,18.48
2022-08-31T17:42:49.856Z,18.30
2022-08-31T17:45:21.366Z,18.32
2022-08-31T17:48:14.620Z,18.32
2022-08-31T17:50:46.729Z,18.28
2022-08-31T17:53:16.071Z,18.20
2022-08-31T17:55:55.886Z,18.10
2022-08-31T17:58:25.567Z,17.97
2022-08-31T18:00:54.863Z,17.96
2022-08-31T18:03:25.635Z,18.21
2022-08-31T18:05:55.988Z,17.77
2022-08-31T18:08:26.435Z,17.60
2022-08-31T18:10:55.784Z,17.68
2022-08-31T18:13:26.053Z,17.63
2022-08-31T18:15:56.388Z,17.60
2022-08-31T18:18:28.053Z,17.46
2022-08-31T18:20:59.843Z,17.21
2022-08-31T18:23:32.790Z,17.10
2022-08-31T18:26:02.059Z,17.03
2022-08-31T18:28:31.664Z,16.94
2022-08-31T18:31:07.642Z,16.91
2022-08-31T18:33:41.722Z,16.99
2022-08-31T18:36:12.888Z,16.72
2022-08-31T18:38:42.405Z,16.59
2022-08-31T18:41:32.607Z,16.55
2022-08-31T18:44:20.007Z,16.47
2022-08-31T18:46:51.735Z,16.39
2022-08-31T18:49:29.057Z,16.56
2022-08-31T18:52:03.462Z,16.46
2022-08-31T18:54:35.865Z,16.30
2022-08-31T18:57:05.823Z,16.31
2022-08-31T18:59:35.098Z,16.24
2022-08-31T19:02:05.597Z,16.26
2022-08-31T19:04:39.368Z,16.32
2022-08-31T19:07:08.935Z,16.23
2022-08-31T19:09:38.772Z,16.10
2022-08-31T19:12:09.090Z,16.20
2022-08-31T19:14:39.394Z,16.19
2022-08-31T19:17:08.877Z,16.22
2022-08-31T19:19:39.728Z,16.06
2022-08-31T19:22:09.015Z,16.14
2022-08-31T19:24:40.899Z,16.14
2022-08-31T19:27:11.325Z,16.07
2022-08-31T19:29:41.746Z,15.92
2022-08-31T19:32:11.198Z,15.97
2022-08-31T19:34:44.157Z,15.92
2022-08-31T19:37:15.666Z,16.04
2022-08-31T19:39:46.213Z,15.95
2022-08-31T19:42:16.551Z,15.96
2022-08-31T19:44:55.967Z,15.87
2022-08-31T19:47:38.874Z,15.76
2022-08-31T19:50:14.141Z,15.85
2022-08-31T19:52:52.685Z,15.70
2022-08-31T19:55:23.144Z,15.77
2022-08-31T19:57:53.964Z,15.86
2022-08-31T20:00:23.648Z,15.73
2022-08-31T20:02:55.455Z,15.73
2022-08-31T20:05:33.529Z,15.70
2022-08-31T20:08:14.316Z,15.68
2022-08-31T20:10:45.484Z,15.66
2022-08-31T20:13:15.004Z,15.61
2022-08-31T20:15:47.346Z,15.58
2022-08-31T20:18:17.980Z,15.51
2022-08-31T20:20:52.308Z,15.56
2022-08-31T20:23:22.818Z,15.58
2022-08-31T20:25:54.243Z,15.48
2022-08-31T20:28:26.482Z,15.47
2022-08-31T20:31:00.054Z,15.46
2022-08-31T20:33:29.657Z,15.40
2022-08-31T20:36:00.439Z,15.39
2022-08-31T20:38:39.512Z,15.31
2022-08-31T20:41:09.431Z,15.07
2022-08-31T20:43:39.638Z,14.98
2022-08-31T20:46:09.779Z,14.96
2022-08-31T20:48:58.151Z,14.82
2022-08-31T20:51:31.088Z,14.81
2022-08-31T20:54:00.384Z,14.79
2022-08-31T20:56:29.624Z,14.71
2022-08-31T20:58:59.022Z,14.70
2022-08-31T21:01:30.852Z,14.65
2022-08-31T21:04:00.231Z,14.79
2022-08-31T21:06:30.885Z,14.74
2022-08-31T21:09:00.198Z,14.80
2022-08-31T21:11:29.606Z,14.84
2022-08-31T21:14:00.134Z,14.80
2022-08-31T21:16:32.300Z,14.83
2022-08-31T21:19:01.687Z,14.79
2022-08-31T21:21:32.304Z,14.76
2022-08-31T21:24:01.615Z,14.78
2022-08-31T21:26:30.911Z,14.65
2022-08-31T21:29:01.272Z,14.67
2022-08-31T21:31:30.894Z,14.72
2022-08-31T21:34:03.545Z,14.79
2022-08-31T21:36:35.841Z,14.84
2022-08-31T21:39:08.633Z,14.89
2022-08-31T21:41:39.428Z,14.93
2022-08-31T21:44:09.600Z,14.91
2022-08-31T21:46:39.384Z,14.96
2022-08-31T21:49:10.795Z,14.95
2022-08-31T21:51:47.034Z,14.93
2022-08-31T21:54:19.185Z,14.89
2022-08-31T21:56:51.220Z,14.67
2022-08-31T21:59:24.036Z,14.46
2022-08-31T22:01:59.326Z,14.39
2022-08-31T22:04:29.684Z,14.46
2022-08-31T22:07:01.538Z,14.54
2022-08-31T22:09:31.634Z,14.57
2022-08-31T22:12:07.376Z,14.70
2022-08-31T22:14:40.241Z,14.82
2022-08-31T22:17:10.986Z,14.64
2022-08-31T22:19:40.839Z,14.55
2022-08-31T22:22:13.344Z,14.64
2022-08-31T22:24:43.170Z,14.50
2022-08-31T22:27:14.033Z,14.43
2022-08-31T22:29:43.170Z,14.47
2022-08-31T22:32:15.292Z,14.29
2022-08-31T22:34:46.166Z,14.28
2022-08-31T22:37:16.788Z,14.28
2022-08-31T22:39:46.089Z,14.29
2022-08-31T22:42:15.875Z,14.32
2022-08-31T22:44:45.036Z,14.43
2022-08-31T22:47:14.771Z,14.44
2022-08-31T22:49:49.210Z,14.47
2022-08-31T22:52:19.768Z,14.55
2022-08-31T22:54:48.982Z,14.46
2022-08-31T22:57:18.640Z,14.44
2022-08-31T22:59:47.863Z,14.48
2022-08-31T23:02:18.559Z,14.46
2022-08-31T23:04:50.096Z,14.51
2022-08-31T23:07:22.100Z,14.35
2022-08-31T23:09:52.160Z,14.37
2022-08-31T23:12:21.400Z,14.30
2022-08-31T23:14:50.605Z,14.20
2022-08-31T23:17:19.776Z,14.16
2022-08-31T23:19:54.209Z,14.25
2022-08-31T23:22:24.828Z,14.32
2022-08-31T23:24:54.255Z,14.33
2022-08-31T23:27:24.343Z,14.40
2022-08-31T23:29:58.157Z,14.42
2022-08-31T23:32:32.203Z,14.45
2022-08-31T23:35:01.581Z,14.45
2022-08-31T23:37:33.104Z,14.50
2022-08-31T23:40:04.076Z,14.53
2022-08-31T23:42:34.798Z,14.52
2022-08-31T23:45:04.105Z,14.55
2022-08-31T23:47:33.875Z,14.55
2022-08-31T23:50:04.887Z,14.55
2022-08-31T23:52:41.579Z,14.53
2022-08-31T23:55:12.337Z,14.53
2022-08-31T23:57:43.530Z,14.51
